Time;durP1;ratioP1;P1;durP2;ratioP2;P2;SDS_P1;SDS_P2;PMS_P1;PMS_P2;Temp;Humidity;BMP_temperature;BMP_pressure;BME280_temperature;BME280_humidity;BME280_pressure;Samples;Min_cycle;Max_cycle;Signal;HPM_P1;HPM_P2
2022/09/14 00:01:16;;;;;;;1.30;1.20;;;22.30;71.40;;;;;;5000666;28;20224;-71
2022/09/14 00:03:43;;;;;;;1.30;1.20;;;22.30;71.50;;;;;;5001056;28;20199;-72
2022/09/14 00:06:14;;;;;;;1.83;1.20;;;22.30;71.40;;;;;;5001094;28;20179;-72
2022/09/14 00:08:41;;;;;;;1.20;1.10;;;22.30;71.40;;;;;;5001287;28;20184;-71
2022/09/14 00:11:13;;;;;;;1.20;1.10;;;22.30;71.50;;;;;;5000325;28;20222;-71
2022/09/14 00:13:43;;;;;;;1.10;1.10;;;22.30;71.60;;;;;;5001008;28;20191;-71
2022/09/14 00:16:17;;;;;;;2.22;1.08;;;22.30;71.70;;;;;;5009470;28;20200;-70
2022/09/14 00:18:43;;;;;;;1.10;1.10;;;22.30;71.80;;;;;;5001217;28;20648;-71
2022/09/14 00:21:11;;;;;;;1.08;1.08;;;22.30;71.80;;;;;;5019908;28;20366;-71
2022/09/14 00:23:40;;;;;;;1.10;1.10;;;22.30;71.80;;;;;;5036672;28;20184;-71
2022/09/14 00:26:14;;;;;;;1.20;1.10;;;22.30;71.80;;;;;;5003994;28;20260;-71
2022/09/14 00:28:44;;;;;;;1.02;1.00;;;22.30;71.90;;;;;;5036767;28;20191;-71
2022/09/14 00:31:11;;;;;;;1.08;0.98;;;22.30;71.90;;;;;;5036634;28;20212;-71
2022/09/14 00:33:37;;;;;;;1.15;1.10;;;22.30;71.80;;;;;;5020791;28;20210;-71
2022/09/14 00:36:10;;;;;;;2.00;1.20;;;22.20;71.70;;;;;;5020472;28;20184;-71
2022/09/14 00:38:37;;;;;;;1.15;1.10;;;22.30;71.90;;;;;;5020589;28;20267;-71
2022/09/14 00:41:06;;;;;;;1.67;1.08;;;22.30;71.90;;;;;;5036874;28;20235;-71
2022/09/14 00:43:49;;;;;;;1.35;1.25;;;22.30;72.00;;;;;;5019930;28;20705;-71
2022/09/14 00:46:15;;;;;;;1.20;1.00;;;22.20;71.90;;;;;;5020747;28;20180;-71
2022/09/14 00:48:41;;;;;;;1.50;1.02;;;22.30;72.10;;;;;;5037166;28;20180;-71
2022/09/14 00:51:07;;;;;;;1.05;1.02;;;22.30;72.20;;;;;;5020980;28;20208;-71
2022/09/14 00:53:32;;;;;;;1.05;1.05;;;22.30;72.20;;;;;;5023283;28;20196;-71
2022/09/14 00:55:58;;;;;;;0.93;0.90;;;22.30;72.20;;;;;;5021709;28;20188;-71
2022/09/14 00:58:24;;;;;;;1.17;1.08;;;22.30;72.30;;;;;;5003408;28;20211;-71
2022/09/14 01:00:50;;;;;;;1.13;1.13;;;22.20;72.10;;;;;;5035998;28;20220;-71
2022/09/14 01:03:16;;;;;;;1.02;1.02;;;22.30;72.10;;;;;;5036114;28;20184;-71
2022/09/14 01:06:14;;;;;;;1.50;1.40;;;22.20;72.00;;;;;;5019413;28;20674;-70
2022/09/14 01:08:56;;;;;;;1.00;1.00;;;22.20;72.00;;;;;;5035751;28;20230;-71
2022/09/14 01:11:52;;;;;;;1.20;1.20;;;22.30;72.20;;;;;;5002605;28;20211;-70
2022/09/14 01:14:54;;;;;;;1.20;1.10;;;22.20;72.10;;;;;;5019162;28;20184;-71
2022/09/14 01:17:43;;;;;;;1.40;1.30;;;22.20;72.10;;;;;;5036147;28;20223;-71
2022/09/14 01:20:44;;;;;;;1.10;1.10;;;22.20;72.10;;;;;;5002787;28;20652;-72
2022/09/14 01:23:53;;;;;;;1.20;1.10;;;22.20;72.10;;;;;;5019013;28;20203;-72
2022/09/14 01:26:31;;;;;;;1.33;1.15;;;22.20;72.30;;;;;;5002537;28;20202;-71
2022/09/14 01:29:08;;;;;;;1.20;1.10;;;22.20;72.30;;;;;;5002824;28;20218;-72
2022/09/14 01:31:48;;;;;;;1.20;1.10;;;22.20;72.20;;;;;;5033678;28;20211;-72
2022/09/14 01:34:53;;;;;;;1.05;1.05;;;22.20;72.10;;;;;;5002357;28;20247;-70
2022/09/14 01:37:30;;;;;;;1.52;0.90;;;22.20;72.20;;;;;;5036195;28;20211;-72
2022/09/14 01:40:12;;;;;;;1.58;1.30;;;22.20;72.20;;;;;;5003191;28;20178;-72
2022/09/14 01:42:44;;;;;;;1.10;1.10;;;22.20;72.30;;;;;;5018881;28;20188;-71
2022/09/14 01:45:15;;;;;;;1.20;1.10;;;22.20;72.40;;;;;;5002679;28;20199;-71
2022/09/14 01:47:49;;;;;;;1.38;1.27;;;22.20;72.50;;;;;;5019273;28;20184;-71
2022/09/14 01:50:49;;;;;;;1.17;1.17;;;22.20;72.40;;;;;;5018915;28;20188;-70
2022/09/14 01:53:23;;;;;;;1.25;1.20;;;22.20;72.30;;;;;;5002725;28;20211;-71
2022/09/14 01:56:14;;;;;;;1.80;1.20;;;22.20;72.40;;;;;;5001566;28;20210;-71
2022/09/14 01:59:17;;;;;;;1.63;1.20;;;22.20;72.50;;;;;;5002910;28;20180;-71
2022/09/14 02:01:50;;;;;;;1.10;1.10;;;22.20;72.50;;;;;;5002624;28;20251;-72
2022/09/14 02:04:39;;;;;;;0.95;0.95;;;22.30;72.80;;;;;;5020111;28;20183;-72
2022/09/14 02:07:05;;;;;;;1.08;1.00;;;22.20;72.50;;;;;;5038340;28;20183;-71
2022/09/14 02:09:32;;;;;;;1.00;1.00;;;22.20;72.70;;;;;;5035522;28;20200;-70
2022/09/14 02:11:59;;;;;;;1.40;1.30;;;22.30;72.80;;;;;;5002504;28;20208;-71
2022/09/14 02:14:26;;;;;;;1.13;1.13;;;22.20;72.70;;;;;;5018835;28;20192;-71
2022/09/14 02:16:52;;;;;;;1.48;1.38;;;22.20;73.50;;;;;;5017904;28;20184;-71
2022/09/14 02:19:18;;;;;;;1.17;1.08;;;22.20;72.90;;;;;;5001009;28;20226;-71
2022/09/14 02:21:44;;;;;;;3.83;1.35;;;22.30;73.00;;;;;;5000921;28;20219;-71
2022/09/14 02:24:11;;;;;;;1.02;1.02;;;22.20;72.70;;;;;;5002116;28;20192;-71
2022/09/14 02:26:38;;;;;;;1.42;1.33;;;22.20;72.90;;;;;;5002376;28;20234;-71
2022/09/14 02:29:05;;;;;;;1.33;1.20;;;22.30;73.00;;;;;;5001931;28;20592;-71
2022/09/14 02:32:01;;;;;;;1.10;1.10;;;22.20;73.10;;;;;;5001280;28;20211;-71
2022/09/14 02:35:01;;;;;;;1.38;1.27;;;22.20;73.00;;;;;;5001806;28;20267;-71
2022/09/14 02:37:54;;;;;;;1.15;1.15;;;22.20;72.90;;;;;;4979413;28;20280;-71
2022/09/14 02:40:37;;;;;;;1.33;1.25;;;22.20;73.00;;;;;;5017869;28;20220;-72
2022/09/14 02:43:24;;;;;;;1.80;1.40;;;22.20;73.20;;;;;;5001418;28;20183;-72
2022/09/14 02:46:12;;;;;;;1.15;1.10;;;22.20;73.20;;;;;;5001298;28;20270;-71
2022/09/14 02:49:20;;;;;;;1.30;1.20;;;22.20;73.10;;;;;;5001028;28;20199;-71
2022/09/14 02:52:29;;;;;;;1.52;1.42;;;22.20;73.00;;;;;;5000145;28;20216;-71
2022/09/14 02:55:11;;;;;;;1.40;1.15;;;22.20;73.30;;;;;;5017702;28;20180;-71
2022/09/14 02:58:03;;;;;;;1.20;1.20;;;22.20;73.30;;;;;;5000896;28;20188;-72
2022/09/14 03:00:35;;;;;;;1.20;1.10;;;22.20;73.30;;;;;;5015063;28;20223;-71
2022/09/14 03:03:07;;;;;;;1.30;1.20;;;22.20;73.30;;;;;;5017212;28;20283;-71
2022/09/14 03:05:34;;;;;;;1.52;1.40;;;22.20;73.30;;;;;;5033514;28;20207;-71
2022/09/14 03:08:02;;;;;;;1.45;1.25;;;22.20;73.40;;;;;;5000793;28;20215;-71
2022/09/14 03:10:30;;;;;;;1.23;1.23;;;22.20;73.50;;;;;;5016632;28;20208;-71
2022/09/14 03:12:57;;;;;;;1.33;1.23;;;22.20;73.50;;;;;;5016509;28;20196;-71
2022/09/14 03:15:24;;;;;;;1.27;1.17;;;22.20;73.50;;;;;;5017445;28;20188;-71
2022/09/14 03:17:50;;;;;;;1.55;1.27;;;22.20;73.80;;;;;;5016781;28;20199;-71
2022/09/14 03:20:22;;;;;;;1.20;1.10;;;22.20;73.70;;;;;;5016781;28;20277;-70
2022/09/14 03:22:49;;;;;;;1.50;1.40;;;22.20;73.80;;;;;;5000086;28;20238;-71
2022/09/14 03:25:15;;;;;;;1.65;1.55;;;22.20;73.80;;;;;;5017904;28;20199;-71
2022/09/14 03:27:41;;;;;;;1.40;1.30;;;22.20;73.80;;;;;;5017102;28;20254;-71
2022/09/14 03:30:08;;;;;;;1.50;1.40;;;22.20;73.80;;;;;;5016629;28;20188;-71
2022/09/14 03:32:34;;;;;;;1.67;1.58;;;22.20;73.80;;;;;;5017632;28;20176;-71
2022/09/14 03:35:00;;;;;;;1.30;1.20;;;22.20;73.80;;;;;;5017813;28;20218;-71
2022/09/14 03:37:26;;;;;;;1.40;1.30;;;22.20;73.90;;;;;;5009851;28;20180;-71
2022/09/14 03:39:52;;;;;;;1.50;1.40;;;22.20;73.90;;;;;;5033708;28;20184;-71
2022/09/14 03:42:17;;;;;;;1.45;1.17;;;22.20;73.90;;;;;;5001107;28;20226;-71
2022/09/14 03:44:43;;;;;;;1.40;1.20;;;22.20;73.80;;;;;;5017764;28;20230;-71
2022/09/14 03:47:09;;;;;;;1.77;1.30;;;22.20;73.80;;;;;;5033793;28;20566;-71
2022/09/14 03:49:35;;;;;;;1.38;1.20;;;22.20;73.90;;;;;;5033421;28;20184;-71
2022/09/14 03:52:02;;;;;;;1.50;1.40;;;22.20;73.80;;;;;;5033592;28;20291;-71
2022/09/14 03:54:28;;;;;;;1.20;1.20;;;22.20;73.80;;;;;;5002923;28;20196;-71
2022/09/14 03:56:54;;;;;;;1.17;1.10;;;22.20;73.90;;;;;;5038246;28;20220;-71
2022/09/14 03:59:20;;;;;;;1.38;1.27;;;22.20;73.90;;;;;;5021378;28;20195;-71
2022/09/14 04:01:46;;;;;;;1.52;1.35;;;22.20;73.90;;;;;;5004247;28;20299;-71
2022/09/14 04:04:12;;;;;;;1.40;1.30;;;22.20;74.00;;;;;;5004345;28;20188;-71
2022/09/14 04:06:38;;;;;;;1.10;1.10;;;22.20;74.00;;;;;;5054443;28;20270;-71
2022/09/14 04:09:04;;;;;;;1.45;1.20;;;22.20;73.90;;;;;;5023372;28;20175;-72
2022/09/14 04:11:30;;;;;;;1.20;1.10;;;22.20;74.00;;;;;;5023197;28;20207;-71
2022/09/14 04:14:01;;;;;;;1.20;1.10;;;22.20;74.10;;;;;;5023570;28;20215;-71
2022/09/14 04:16:28;;;;;;;1.40;1.23;;;22.20;74.10;;;;;;5023808;28;20195;-72
2022/09/14 04:18:54;;;;;;;1.40;1.30;;;22.20;74.20;;;;;;5024659;28;20199;-71
2022/09/14 04:21:23;;;;;;;2.03;1.15;;;22.20;74.20;;;;;;5041323;28;20279;-72
2022/09/14 04:23:56;;;;;;;2.38;1.20;;;22.20;74.20;;;;;;5025006;28;20190;-72
2022/09/14 04:26:26;;;;;;;1.23;1.20;;;22.20;74.10;;;;;;5040656;28;20271;-71
2022/09/14 04:28:52;;;;;;;1.02;1.00;;;22.20;74.30;;;;;;5024477;28;20262;-71
2022/09/14 04:31:18;;;;;;;1.73;1.27;;;22.20;74.20;;;;;;5023207;28;20203;-71
2022/09/14 04:33:46;;;;;;;1.60;1.45;;;22.20;74.20;;;;;;5023655;28;20192;-72
2022/09/14 04:36:16;;;;;;;1.70;1.25;;;22.20;74.20;;;;;;5023833;28;20282;-71
2022/09/14 04:38:43;;;;;;;2.05;1.27;;;22.20;74.10;;;;;;5024548;28;20218;-71
2022/09/14 04:41:16;;;;;;;1.50;1.40;;;22.20;74.20;;;;;;5023570;28;20215;-72
2022/09/14 04:43:44;;;;;;;1.25;1.25;;;22.20;74.20;;;;;;5024752;28;20190;-71
2022/09/14 04:46:14;;;;;;;1.30;1.20;;;22.20;74.30;;;;;;5024988;28;20187;-71
2022/09/14 04:48:40;;;;;;;1.38;1.27;;;22.20;74.40;;;;;;5024447;28;20184;-71
2022/09/14 04:51:15;;;;;;;1.65;1.42;;;22.20;74.50;;;;;;5023446;28;20724;-71
2022/09/14 04:53:42;;;;;;;1.50;1.40;;;22.20;74.30;;;;;;5023325;28;20183;-71
2022/09/14 04:56:10;;;;;;;1.52;1.42;;;22.20;74.60;;;;;;5025209;28;20187;-71
2022/09/14 04:58:40;;;;;;;1.30;1.20;;;22.20;74.50;;;;;;5028857;28;20223;-70
2022/09/14 05:01:10;;;;;;;1.40;1.30;;;22.10;74.50;;;;;;5022426;28;20266;-71
2022/09/14 05:03:38;;;;;;;2.13;1.33;;;22.20;74.60;;;;;;5022444;28;20187;-72
2022/09/14 05:06:08;;;;;;;1.50;1.40;;;22.20;74.60;;;;;;5021992;28;20191;-72
2022/09/14 05:08:37;;;;;;;1.40;1.30;;;22.20;74.90;;;;;;5021209;28;20191;-71
2022/09/14 05:11:08;;;;;;;1.45;1.35;;;22.20;74.80;;;;;;5019455;28;20199;-70
2022/09/14 05:13:34;;;;;;;1.58;1.48;;;22.20;74.90;;;;;;5036125;28;20199;-71
2022/09/14 05:16:35;;;;;;;1.90;1.38;;;22.20;74.70;;;;;;5035790;28;20187;-71
2022/09/14 05:19:08;;;;;;;1.40;1.27;;;22.20;75.00;;;;;;5015275;28;20231;-71
2022/09/14 05:21:36;;;;;;;1.90;1.38;;;22.20;75.00;;;;;;5018980;28;20223;-72
2022/09/14 05:24:20;;;;;;;1.42;1.33;;;22.20;75.00;;;;;;5035858;28;20179;-71
2022/09/14 05:26:46;;;;;;;1.65;1.50;;;22.20;75.30;;;;;;5035212;28;20187;-72
2022/09/14 05:29:16;;;;;;;1.70;1.48;;;22.20;75.30;;;;;;5019624;28;20628;-71
2022/09/14 05:31:42;;;;;;;1.83;1.40;;;22.20;75.30;;;;;;5017634;28;20267;-72
2022/09/14 05:34:09;;;;;;;1.40;1.30;;;22.10;75.20;;;;;;4999449;28;20286;-72
2022/09/14 05:36:37;;;;;;;1.50;1.40;;;22.20;75.30;;;;;;4999368;28;20270;-71
2022/09/14 05:39:04;;;;;;;1.67;1.58;;;22.10;75.20;;;;;;4999625;28;20218;-71
2022/09/14 05:41:30;;;;;;;1.33;1.23;;;22.10;75.20;;;;;;5015651;28;20227;-71
2022/09/14 05:43:58;;;;;;;1.33;1.23;;;22.10;75.20;;;;;;5015391;28;20179;-71
2022/09/14 05:46:24;;;;;;;1.45;1.35;;;22.20;75.30;;;;;;5015397;28;20183;-71
2022/09/14 05:48:50;;;;;;;2.90;1.60;;;22.10;75.20;;;;;;4999196;28;20252;-71
2022/09/14 05:51:24;;;;;;;1.35;1.25;;;22.10;75.20;;;;;;4999408;28;20219;-71
2022/09/14 05:53:56;;;;;;;1.50;1.40;;;22.20;75.40;;;;;;5015359;28;20184;-72
2022/09/14 05:56:25;;;;;;;1.52;1.42;;;22.20;75.30;;;;;;4999326;28;20203;-72
2022/09/14 05:58:51;;;;;;;1.50;1.40;;;22.20;75.30;;;;;;4999338;28;20196;-71
2022/09/14 06:01:27;;;;;;;3.38;1.65;;;22.20;76.30;;;;;;5002041;28;20593;-71
2022/09/14 06:03:56;;;;;;;1.73;1.27;;;22.20;75.70;;;;;;5015313;28;20188;-71
2022/09/14 06:06:23;;;;;;;2.92;1.35;;;22.20;75.70;;;;;;5014979;28;20191;-72
2022/09/14 06:08:51;;;;;;;1.40;1.20;;;22.20;75.90;;;;;;5001606;28;20185;-72
2022/09/14 06:11:25;;;;;;;1.48;1.30;;;22.20;75.60;;;;;;5030943;28;20648;-71
2022/09/14 06:13:53;;;;;;;2.50;1.88;;;22.20;75.80;;;;;;4998659;28;20188;-71
2022/09/14 06:16:21;;;;;;;1.50;1.35;;;22.20;75.90;;;;;;5014277;28;20192;-71
2022/09/14 06:18:48;;;;;;;1.75;1.45;;;22.20;75.80;;;;;;5015031;28;20200;-71
2022/09/14 06:21:18;;;;;;;2.30;1.42;;;22.20;76.00;;;;;;4998512;28;20216;-71
2022/09/14 06:23:45;;;;;;;1.40;1.30;;;22.20;75.90;;;;;;5030630;28;20180;-71
2022/09/14 06:26:12;;;;;;;1.95;1.75;;;22.20;75.90;;;;;;5031579;28;20271;-71
2022/09/14 06:28:38;;;;;;;2.47;1.40;;;22.20;75.80;;;;;;5031380;28;20180;-71
2022/09/14 06:31:06;;;;;;;2.05;1.35;;;22.20;76.00;;;;;;4998487;28;20208;-71
2022/09/14 06:33:33;;;;;;;1.33;1.23;;;22.20;76.10;;;;;;4998566;28;20238;-71
2022/09/14 06:36:02;;;;;;;1.50;1.40;;;22.20;76.10;;;;;;5031083;28;20279;-71
2022/09/14 06:38:29;;;;;;;1.77;1.20;;;22.20;76.20;;;;;;5014559;28;20196;-71
2022/09/14 06:41:01;;;;;;;1.63;1.25;;;22.20;76.10;;;;;;5031182;28;20330;-71
2022/09/14 06:43:32;;;;;;;1.48;1.38;;;22.20;76.30;;;;;;5015205;28;20192;-71
2022/09/14 06:46:02;;;;;;;1.55;1.30;;;22.20;76.00;;;;;;5014682;28;20203;-71
2022/09/14 06:48:35;;;;;;;1.70;1.60;;;22.20;76.50;;;;;;4998025;28;20275;-72
2022/09/14 06:51:19;;;;;;;1.50;1.40;;;22.20;76.70;;;;;;4998098;28;20204;-71
2022/09/14 06:53:46;;;;;;;2.70;1.38;;;22.20;76.70;;;;;;4998208;28;20187;-71
2022/09/14 06:56:13;;;;;;;2.22;1.40;;;22.20;76.70;;;;;;5015106;28;20195;-71
2022/09/14 06:58:40;;;;;;;1.40;1.30;;;22.20;76.60;;;;;;4998164;28;20211;-71
2022/09/14 07:01:11;;;;;;;1.77;1.50;;;22.20;76.60;;;;;;5030716;28;20266;-70
2022/09/14 07:03:38;;;;;;;1.92;1.63;;;22.20;76.60;;;;;;4998729;28;20179;-71
2022/09/14 07:06:08;;;;;;;1.23;1.15;;;22.20;76.70;;;;;;5014421;28;20184;-71
2022/09/14 07:08:35;;;;;;;1.55;1.38;;;22.20;76.60;;;;;;4998658;28;20246;-71
2022/09/14 07:11:03;;;;;;;2.92;1.67;;;22.20;76.90;;;;;;5030644;28;20238;-71
2022/09/14 07:13:30;;;;;;;1.30;1.25;;;22.30;77.10;;;;;;5014377;28;20184;-71
2022/09/14 07:15:56;;;;;;;1.50;1.30;;;22.30;77.30;;;;;;5013859;28;20192;-71
2022/09/14 07:18:31;;;;;;;1.60;1.50;;;22.30;77.50;;;;;;5031100;28;20238;-71
2022/09/14 07:21:05;;;;;;;2.25;1.55;;;22.30;77.20;;;;;;5013945;28;20361;-71
2022/09/14 07:23:32;;;;;;;1.50;1.40;;;22.30;77.40;;;;;;5032565;28;20226;-70
2022/09/14 07:26:05;;;;;;;1.83;1.60;;;22.30;77.60;;;;;;5014222;28;20187;-71
2022/09/14 07:28:31;;;;;;;1.30;1.20;;;22.30;77.60;;;;;;4997411;28;20188;-71
2022/09/14 07:30:58;;;;;;;1.50;1.40;;;22.30;77.70;;;;;;4997915;28;20216;-71
2022/09/14 07:33:23;;;;;;;2.22;1.35;;;22.30;77.80;;;;;;5014000;28;20204;-71
2022/09/14 07:35:51;;;;;;;1.77;1.45;;;22.30;77.90;;;;;;5014220;28;20279;-70
2022/09/14 07:38:18;;;;;;;1.67;1.50;;;22.30;77.70;;;;;;5014389;28;20196;-71
2022/09/14 07:40:44;;;;;;;2.25;1.60;;;22.30;77.80;;;;;;4997807;28;20235;-71
2022/09/14 07:43:10;;;;;;;1.58;1.48;;;22.30;77.70;;;;;;4998109;28;20188;-70
2022/09/14 07:45:37;;;;;;;2.78;1.50;;;22.30;77.80;;;;;;5014374;28;20226;-71
2022/09/14 07:48:04;;;;;;;1.55;1.45;;;22.30;77.70;;;;;;4997849;28;20184;-71
2022/09/14 07:50:30;;;;;;;1.40;1.30;;;22.40;77.40;;;;;;5013938;28;20691;-71
2022/09/14 07:52:56;;;;;;;1.40;1.30;;;22.40;77.50;;;;;;4998179;28;20184;-72
2022/09/14 07:55:22;;;;;;;1.83;1.42;;;22.40;77.30;;;;;;4997870;28;20188;-71
2022/09/14 07:57:48;;;;;;;1.65;1.55;;;22.40;77.20;;;;;;5014789;28;20203;-70
2022/09/14 08:00:15;;;;;;;1.95;1.75;;;22.40;77.00;;;;;;4997321;28;20211;-71
2022/09/14 08:02:41;;;;;;;1.98;1.40;;;22.40;76.80;;;;;;5030521;28;20184;-72
2022/09/14 08:05:07;;;;;;;1.58;1.42;;;22.40;76.80;;;;;;5030837;28;20184;-70
2022/09/14 08:07:33;;;;;;;1.50;1.20;;;22.40;76.60;;;;;;5030025;28;20219;-71
2022/09/14 08:09:59;;;;;;;3.05;1.40;;;22.40;76.80;;;;;;5032739;28;20172;-71
2022/09/14 08:12:25;;;;;;;2.60;1.33;;;22.40;76.80;;;;;;5031401;28;20219;-71
2022/09/14 08:14:52;;;;;;;1.92;1.65;;;22.50;76.60;;;;;;5035469;28;20191;-71
2022/09/14 08:17:20;;;;;;;2.95;1.40;;;22.50;76.40;;;;;;5034344;28;20219;-71
2022/09/14 08:19:47;;;;;;;1.73;1.40;;;22.40;76.30;;;;;;5033981;28;20203;-70
2022/09/14 08:22:12;;;;;;;1.50;1.30;;;22.50;76.30;;;;;;5034077;28;20219;-71
2022/09/14 08:24:39;;;;;;;1.42;1.33;;;22.50;76.40;;;;;;5034410;28;20187;-71
2022/09/14 08:27:04;;;;;;;3.25;1.50;;;22.50;76.60;;;;;;5034004;28;20195;-72
2022/09/14 08:29:30;;;;;;;1.30;1.20;;;22.50;76.80;;;;;;5034010;28;20180;-72
2022/09/14 08:31:57;;;;;;;1.83;1.42;;;22.50;76.60;;;;;;5033952;28;20633;-70
2022/09/14 08:34:23;;;;;;;1.27;1.20;;;22.50;78.00;;;;;;5034612;28;20268;-72
2022/09/14 08:36:49;;;;;;;2.00;1.30;;;22.50;76.50;;;;;;5034015;28;20194;-71
2022/09/14 08:39:16;;;;;;;2.47;1.48;;;22.50;76.60;;;;;;5034037;28;20184;-72
2022/09/14 08:41:44;;;;;;;1.55;1.45;;;22.40;76.40;;;;;;5037311;28;20219;-71
2022/09/14 08:44:10;;;;;;;1.85;1.40;;;22.50;76.70;;;;;;5037507;28;20278;-71
2022/09/14 08:46:57;;;;;;;2.38;1.48;;;22.50;76.40;;;;;;5037291;28;20223;-71
2022/09/14 08:49:50;;;;;;;1.63;1.40;;;22.50;76.50;;;;;;5037298;28;20274;-71
2022/09/14 08:52:31;;;;;;;1.50;1.40;;;22.50;76.00;;;;;;5037685;28;20203;-71
2022/09/14 08:55:25;;;;;;;1.55;1.23;;;22.50;76.30;;;;;;5037296;28;20241;-72
2022/09/14 08:58:19;;;;;;;1.40;1.30;;;22.50;76.30;;;;;;5022044;28;20187;-71
2022/09/14 09:01:03;;;;;;;1.08;1.08;;;22.50;76.10;;;;;;5037369;28;20722;-71
2022/09/14 09:03:53;;;;;;;1.58;1.20;;;22.50;76.20;;;;;;5037634;28;20282;-71
2022/09/14 09:06:50;;;;;;;1.52;1.42;;;22.50;76.20;;;;;;5037520;28;20198;-71
2022/09/14 09:09:43;;;;;;;1.63;1.50;;;22.50;76.60;;;;;;5037604;28;20194;-71
2022/09/14 09:12:28;;;;;;;2.25;1.30;;;22.50;76.70;;;;;;5038942;28;20203;-71
2022/09/14 09:15:00;;;;;;;1.63;1.40;;;22.50;76.70;;;;;;5038567;28;20283;-71
2022/09/14 09:17:43;;;;;;;2.20;1.40;;;22.50;76.80;;;;;;5033796;28;20675;-71
2022/09/14 09:20:22;;;;;;;2.38;1.25;;;22.50;76.80;;;;;;5016531;28;20207;-71
2022/09/14 09:23:20;;;;;;;1.52;1.40;;;22.50;77.00;;;;;;5017081;28;20200;-72
2022/09/14 09:26:03;;;;;;;1.83;1.60;;;22.50;77.20;;;;;;5033085;28;20198;-71
2022/09/14 09:28:30;;;;;;;2.83;1.55;;;22.40;77.20;;;;;;5016563;28;20275;-71
2022/09/14 09:31:06;;;;;;;1.63;1.52;;;22.50;77.30;;;;;;5016513;28;20216;-71
2022/09/14 09:33:52;;;;;;;1.90;1.70;;;22.50;77.10;;;;;;5017366;28;20252;-71
2022/09/14 09:36:21;;;;;;;1.52;1.40;;;22.50;76.80;;;;;;5016232;28;20188;-71
2022/09/14 09:38:47;;;;;;;1.60;1.50;;;22.50;76.80;;;;;;5016698;28;20210;-71
2022/09/14 09:41:25;;;;;;;1.60;1.10;;;22.50;77.10;;;;;;5016412;28;20307;-71
2022/09/14 09:44:08;;;;;;;1.83;1.50;;;22.50;76.90;;;;;;5000492;28;20235;-71
2022/09/14 09:46:54;;;;;;;2.05;1.40;;;22.50;76.70;;;;;;4999998;28;20180;-71
2022/09/14 09:49:34;;;;;;;1.55;1.27;;;22.50;77.10;;;;;;5016356;28;20188;-71
2022/09/14 09:52:15;;;;;;;1.77;1.13;;;22.50;77.10;;;;;;4999144;28;20217;-71
2022/09/14 09:54:50;;;;;;;1.63;1.33;;;22.50;76.80;;;;;;5000112;28;20195;-72
2022/09/14 09:57:35;;;;;;;1.48;1.38;;;22.50;76.80;;;;;;5015999;28;20215;-71
2022/09/14 10:00:20;;;;;;;1.58;1.33;;;22.50;76.80;;;;;;4999844;28;20191;-71
2022/09/14 10:02:47;;;;;;;1.48;1.02;;;22.50;77.00;;;;;;5032651;28;20222;-71
2022/09/14 10:05:13;;;;;;;1.52;1.23;;;22.50;77.10;;;;;;5033274;28;20258;-72
2022/09/14 10:08:01;;;;;;;1.38;1.27;;;22.50;77.30;;;;;;5016126;28;20200;-70
2022/09/14 10:10:38;;;;;;;2.15;1.55;;;22.50;77.20;;;;;;5034676;28;20215;-72
2022/09/14 10:13:23;;;;;;;1.58;1.48;;;22.50;77.10;;;;;;4999640;28;20196;-72
2022/09/14 10:15:49;;;;;;;1.85;1.50;;;22.50;77.10;;;;;;5015784;28;20192;-72
2022/09/14 10:18:18;;;;;;;1.40;1.30;;;22.50;76.80;;;;;;5035083;28;20209;-71
2022/09/14 10:21:04;;;;;;;1.45;1.35;;;22.50;77.00;;;;;;5018850;28;20223;-70
2022/09/14 10:23:37;;;;;;;1.25;1.20;;;22.50;76.90;;;;;;5035346;28;20213;-71
2022/09/14 10:26:12;;;;;;;1.55;1.30;;;22.50;77.10;;;;;;5035271;28;20201;-70
2022/09/14 10:28:47;;;;;;;1.70;1.55;;;22.50;77.00;;;;;;5011470;28;20186;-71
2022/09/14 10:31:18;;;;;;;1.63;1.50;;;22.50;76.80;;;;;;5018756;28;20198;-71
2022/09/14 10:33:55;;;;;;;1.40;1.30;;;22.50;77.00;;;;;;5035530;28;20191;-71
2022/09/14 10:36:36;;;;;;;1.95;1.20;;;22.60;77.30;;;;;;5018703;28;20183;-72
2022/09/14 10:39:49;;;;;;;3.08;1.30;;;22.50;77.10;;;;;;5035568;28;20219;-71
2022/09/14 10:42:41;;;;;;;1.35;1.17;;;22.60;76.90;;;;;;5034860;28;20223;-71
2022/09/14 10:45:18;;;;;;;1.20;1.10;;;22.60;77.00;;;;;;5019133;28;20558;-71
2022/09/14 10:48:08;;;;;;;2.22;1.35;;;22.60;77.20;;;;;;5034518;28;20644;-71
2022/09/14 10:51:02;;;;;;;1.60;1.50;;;22.60;77.30;;;;;;5034246;28;20651;-71
2022/09/14 10:53:48;;;;;;;2.58;1.50;;;22.50;77.10;;;;;;5035104;28;20187;-71
2022/09/14 10:56:55;;;;;;;1.40;1.30;;;22.60;77.70;;;;;;5018868;28;20186;-71
2022/09/14 10:59:49;;;;;;;1.40;1.30;;;22.60;77.70;;;;;;5005683;28;20206;-71
2022/09/14 11:11:32;;;;;;;1.73;1.33;;;22.60;77.90;;;;;;5033926;28;20225;-71
2022/09/14 11:14:09;;;;;;;1.35;1.25;;;22.60;77.80;;;;;;5035268;28;20187;-71
2022/09/14 11:17:24;;;;;;;1.30;1.10;;;22.60;77.50;;;;;;5034764;28;20261;-71
2022/09/14 11:20:24;;;;;;;1.48;1.38;;;22.60;77.50;;;;;;5018121;28;20195;-71
2022/09/14 11:23:12;;;;;;;1.40;1.30;;;22.60;78.00;;;;;;5017729;28;20293;-70
2022/09/14 11:26:19;;;;;;;1.45;1.35;;;22.60;78.00;;;;;;5033448;28;20187;-71
2022/09/14 11:29:17;;;;;;;1.80;1.35;;;22.60;77.60;;;;;;5029958;28;20202;-71
2022/09/14 11:32:12;;;;;;;1.83;1.27;;;22.60;78.10;;;;;;5034323;28;20568;-70
2022/09/14 11:35:02;;;;;;;1.73;1.33;;;22.60;77.90;;;;;;5035315;28;20187;-71
2022/09/14 11:37:44;;;;;;;1.30;1.20;;;22.60;78.10;;;;;;5035171;28;20171;-70
2022/09/14 11:40:18;;;;;;;3.20;1.77;;;22.60;77.70;;;;;;5035308;28;20179;-70
2022/09/14 11:42:59;;;;;;;1.40;1.30;;;22.60;77.90;;;;;;5034523;28;20213;-71
2022/09/14 11:45:43;;;;;;;1.27;1.17;;;22.60;78.50;;;;;;5035016;28;20176;-71
2022/09/14 11:48:33;;;;;;;2.85;1.60;;;22.60;78.70;;;;;;5035216;28;20179;-71
2022/09/14 11:52:02;;;;;;;2.58;1.80;;;22.60;78.10;;;;;;5035727;28;20211;-71
2022/09/14 11:54:28;;;;;;;3.03;1.48;;;22.60;78.30;;;;;;5036242;28;20195;-71
2022/09/14 11:57:01;;;;;;;5.65;1.67;;;22.60;79.20;;;;;;5036759;28;20333;-71
2022/09/14 11:59:39;;;;;;;6.38;1.90;;;22.60;79.40;;;;;;5035907;28;20191;-70
2022/09/14 12:02:24;;;;;;;2.30;1.30;;;22.60;78.90;;;;;;5035539;28;20218;-71
2022/09/14 12:05:05;;;;;;;3.15;1.52;;;22.60;79.20;;;;;;5036084;28;20223;-71
2022/09/14 12:07:44;;;;;;;2.38;1.40;;;22.60;78.90;;;;;;5036421;28;20191;-70
2022/09/14 12:10:13;;;;;;;3.90;1.73;;;22.60;78.80;;;;;;5036079;28;20191;-71
2022/09/14 12:12:54;;;;;;;2.72;1.48;;;22.60;79.10;;;;;;5035831;28;20183;-71
2022/09/14 12:15:24;;;;;;;2.72;1.67;;;22.60;78.80;;;;;;5054297;28;20171;-70
2022/09/14 12:18:05;;;;;;;3.13;1.73;;;22.60;79.50;;;;;;5039662;28;20281;-71
2022/09/14 12:20:39;;;;;;;3.42;1.35;;;22.60;79.70;;;;;;5034397;28;20269;-71
2022/09/14 12:23:30;;;;;;;5.22;1.92;;;22.60;79.10;;;;;;5002672;28;20180;-71
2022/09/14 12:26:18;;;;;;;1.63;1.48;;;22.60;79.60;;;;;;5003761;28;20184;-71
2022/09/14 12:28:49;;;;;;;2.90;1.58;;;22.60;80.10;;;;;;5038360;28;20211;-71
2022/09/14 12:31:42;;;;;;;3.60;1.33;;;22.60;79.70;;;;;;5040194;28;20207;-71
2022/09/14 12:34:31;;;;;;;2.13;1.50;;;22.60;79.90;;;;;;5023300;28;20286;-71
2022/09/14 12:37:02;;;;;;;2.85;1.63;;;22.60;80.70;;;;;;5023899;28;20281;-71
2022/09/14 12:39:35;;;;;;;1.55;1.45;;;22.60;80.80;;;;;;5024035;28;20218;-71
2022/09/14 12:42:27;;;;;;;2.47;1.40;;;22.60;81.10;;;;;;5023145;28;20251;-71
2022/09/14 12:44:53;;;;;;;2.13;1.50;;;22.60;80.10;;;;;;5023073;28;20254;-71
2022/09/14 12:47:24;;;;;;;2.90;1.48;;;22.60;80.50;;;;;;5039417;28;20277;-71
2022/09/14 12:49:56;;;;;;;1.50;1.40;;;22.60;80.60;;;;;;5023083;28;20210;-71
2022/09/14 12:52:46;;;;;;;3.10;1.60;;;22.70;80.70;;;;;;5023113;28;20294;-71
2022/09/14 12:55:24;;;;;;;2.40;1.40;;;22.60;80.60;;;;;;5023255;28;20187;-71
2022/09/14 12:58:33;;;;;;;3.15;1.60;;;22.60;80.70;;;;;;5023344;28;20583;-70
2022/09/14 13:01:19;;;;;;;2.00;1.23;;;22.60;80.70;;;;;;5023056;28;20223;-71
2022/09/14 13:03:56;;;;;;;1.88;1.48;;;22.60;80.60;;;;;;5039654;28;20565;-71
2022/09/14 13:06:38;;;;;;;1.77;1.20;;;22.60;80.50;;;;;;5023402;28;20187;-71
2022/09/14 13:09:04;;;;;;;1.77;1.23;;;22.60;80.60;;;;;;5009795;28;20184;-71
2022/09/14 13:11:40;;;;;;;1.77;1.17;;;22.60;80.70;;;;;;5004281;28;20218;-71
2022/09/14 13:14:15;;;;;;;1.73;1.20;;;22.60;80.60;;;;;;5036730;28;20307;-71
2022/09/14 13:16:45;;;;;;;1.85;1.13;;;22.60;81.00;;;;;;5019496;28;20179;-72
2022/09/14 13:19:23;;;;;;;1.25;1.23;;;22.60;81.00;;;;;;5021546;28;20687;-72
2022/09/14 13:21:54;;;;;;;2.00;1.58;;;22.60;81.10;;;;;;5020480;28;20220;-71
2022/09/14 13:24:37;;;;;;;2.63;1.33;;;22.60;81.20;;;;;;5034357;28;20184;-71
2022/09/14 13:27:07;;;;;;;2.60;1.40;;;22.60;80.80;;;;;;5017306;28;20191;-71
2022/09/14 13:29:33;;;;;;;2.63;1.58;;;22.60;81.00;;;;;;5018916;28;20188;-72
2022/09/14 13:31:59;;;;;;;1.67;1.27;;;22.60;81.00;;;;;;5018656;28;20203;-72
2022/09/14 13:34:31;;;;;;;1.85;1.50;;;22.60;80.90;;;;;;5002508;28;20180;-72
2022/09/14 13:36:57;;;;;;;1.85;1.45;;;22.60;80.90;;;;;;5018743;28;20271;-71